Advantage Summer — V7EW8 — position and weather

sailwx.info

Track history (hours):
 
Tides and Currents Weather Stations Pressure Air Temp Water Temp Dewpoint Dewpoint Depression Visibility Wind Speed Wind Dir Waves Ship Positions

Advantage Summer

Last reported at 2018-May-22 15:03 UTC. Time now 2018-May-27 08:08 UTC.
Position N 21°11' E 065°37'.

Length 274 m; draft 9.6 m.

Type: Ship. MMSI: 538006307.

Date/timePositionNaut miles runAvg speedWind from/ knotsBaromVisibWave heightAir tempDewpointWater temp
2018-May-22 15:03N 21°11' E 065°37'113.9
2018-May-22 14:59N 21°10' E 065°38'1711.6
2018-May-22 13:34N 20°57' E 065°48'7711.6
2018-May-22 06:52N 19°53' E 066°35'511.9
2018-May-22 06:27N 19°49' E 066°38'611.7
2018-May-22 05:59N 19°44' E 066°41'611.6
2018-May-22 05:26N 19°39' E 066°45'3012.3
2018-May-22 02:58N 19°14' E 067°03'611.9
2018-May-22 02:29N 19°09' E 067°07'612.0
2018-May-22 02:00N 19°05' E 067°10'612.1
2018-May-22 01:30N 18°60' E 067°14'1011.9
2018-May-22 00:42N 18°52' E 067°20'312.0
2018-May-22 00:26N 18°49' E 067°22'512.1
2018-May-22 00:00N 18°45' E 067°25'612.1
2018-May-21 23:30N 18°40' E 067°29'811.9
2018-May-21 22:49N 18°33' E 067°34'411.8
2018-May-21 22:27N 18°30' E 067°36'711.7
2018-May-21 21:50N 18°24' E 067°40'611.7
2018-May-21 21:21N 18°19' E 067°44'811.6
2018-May-21 20:41N 18°13' E 067°48'311.7
2018-May-21 20:25N 18°10' E 067°50'911.8
2018-May-21 19:37N 18°03' E 067°56'311.6
2018-May-21 19:19N 17°60' E 067°58'411.6
2018-May-21 19:00N 17°57' E 068°00'711.6
2018-May-21 18:26N 17°51' E 068°04'511.3
2018-May-21 18:00N 17°47' E 068°07'1711.2
2018-May-21 16:29N 17°33' E 068°17'611.0
2018-May-21 15:58N 17°29' E 068°20'511.1
2018-May-21 15:30N 17°24' E 068°23'1012.6
2018-May-21 14:45N 17°16' E 068°29'311.2
2018-May-21 14:29N 17°14' E 068°31'611.1
2018-May-21 13:59N 17°09' E 068°34'611.0
2018-May-21 13:28N 17°05' E 068°37'511.0
2018-May-21 13:00N 17°00' E 068°40'611.1
2018-May-21 12:29N 16°56' E 068°44'1611.1
2018-May-21 11:00N 16°42' E 068°54'1911.3
2018-May-21 09:20N 16°27' E 069°05'411.6
2018-May-21 08:58N 16°23' E 069°08'1211.4
2018-May-21 07:54N 16°13' E 069°15'711.4
2018-May-21 07:19N 16°08' E 069°18'411.7
2018-May-21 07:00N 16°05' E 069°21'1111.6
2018-May-21 06:05N 15°56' E 069°27'211.5
2018-May-21 05:53N 15°54' E 069°28'411.3
2018-May-21 05:30N 15°51' E 069°31'611.2
2018-May-21 04:58N 15°46' E 069°35'511.4
2018-May-21 04:30N 15°41' E 069°38'2112.0
2018-May-21 02:43N 15°24' E 069°51'211.1
2018-May-21 02:30N 15°22' E 069°52'611.0
2018-May-21 02:00N 15°17' E 069°55'1811.1
2018-May-21 00:20N 15°02' E 070°06'5311.1
2018-May-20 19:31N 14°18' E 070°37'011.3
2018-May-20 19:30N 14°18' E 070°37'611.2
2018-May-20 18:59N 14°13' E 070°41'511.1
2018-May-20 18:30N 14°09' E 070°44'  
Track history (hours):
 
Tides and Currents Weather Stations Pressure Air Temp Water Temp Dewpoint Dewpoint Depression Visibility Wind Speed Wind Dir Waves Ship Positions

Advantage Summer

Last reported at 2018-May-22 15:03 UTC. Time now 2018-May-27 08:08 UTC.
Position N 21°11' E 065°37'.

Length 274 m; draft 9.6 m.

Type: Ship. MMSI: 538006307.

Date/timePositionNaut miles runAvg speedWind from/ knotsBaromVisibWave heightAir tempDewpointWater temp
2018-May-22 15:03N 21°11' E 065°37'113.9
2018-May-22 14:59N 21°10' E 065°38'1711.6
2018-May-22 13:34N 20°57' E 065°48'7711.6
2018-May-22 06:52N 19°53' E 066°35'511.9
2018-May-22 06:27N 19°49' E 066°38'611.7
2018-May-22 05:59N 19°44' E 066°41'611.6
2018-May-22 05:26N 19°39' E 066°45'3012.3
2018-May-22 02:58N 19°14' E 067°03'611.9
2018-May-22 02:29N 19°09' E 067°07'612.0
2018-May-22 02:00N 19°05' E 067°10'612.1
2018-May-22 01:30N 18°60' E 067°14'1011.9
2018-May-22 00:42N 18°52' E 067°20'312.0
2018-May-22 00:26N 18°49' E 067°22'512.1
2018-May-22 00:00N 18°45' E 067°25'612.1
2018-May-21 23:30N 18°40' E 067°29'811.9
2018-May-21 22:49N 18°33' E 067°34'411.8
2018-May-21 22:27N 18°30' E 067°36'711.7
2018-May-21 21:50N 18°24' E 067°40'611.7
2018-May-21 21:21N 18°19' E 067°44'811.6
2018-May-21 20:41N 18°13' E 067°48'311.7
2018-May-21 20:25N 18°10' E 067°50'911.8
2018-May-21 19:37N 18°03' E 067°56'311.6
2018-May-21 19:19N 17°60' E 067°58'411.6
2018-May-21 19:00N 17°57' E 068°00'711.6
2018-May-21 18:26N 17°51' E 068°04'511.3
2018-May-21 18:00N 17°47' E 068°07'1711.2
2018-May-21 16:29N 17°33' E 068°17'611.0
2018-May-21 15:58N 17°29' E 068°20'511.1
2018-May-21 15:30N 17°24' E 068°23'1012.6
2018-May-21 14:45N 17°16' E 068°29'311.2
2018-May-21 14:29N 17°14' E 068°31'611.1
2018-May-21 13:59N 17°09' E 068°34'611.0
2018-May-21 13:28N 17°05' E 068°37'511.0
2018-May-21 13:00N 17°00' E 068°40'611.1
2018-May-21 12:29N 16°56' E 068°44'1611.1
2018-May-21 11:00N 16°42' E 068°54'1911.3
2018-May-21 09:20N 16°27' E 069°05'411.6
2018-May-21 08:58N 16°23' E 069°08'1211.4
2018-May-21 07:54N 16°13' E 069°15'711.4
2018-May-21 07:19N 16°08' E 069°18'411.7
2018-May-21 07:00N 16°05' E 069°21'1111.6
2018-May-21 06:05N 15°56' E 069°27'211.5
2018-May-21 05:53N 15°54' E 069°28'411.3
2018-May-21 05:30N 15°51' E 069°31'611.2
2018-May-21 04:58N 15°46' E 069°35'511.4
2018-May-21 04:30N 15°41' E 069°38'2112.0
2018-May-21 02:43N 15°24' E 069°51'211.1
2018-May-21 02:30N 15°22' E 069°52'611.0
2018-May-21 02:00N 15°17' E 069°55'1811.1
2018-May-21 00:20N 15°02' E 070°06'5311.1
2018-May-20 19:31N 14°18' E 070°37'011.3
2018-May-20 19:30N 14°18' E 070°37'611.2
2018-May-20 18:59N 14°13' E 070°41'511.1
2018-May-20 18:30N 14°09' E 070°44'  

Dump ship's entire track history